createdAt,value
2019-02-21T00:01:34.962Z,34.50
2019-02-21T00:04:40.698Z,34.50
2019-02-21T00:07:46.576Z,34.50
2019-02-21T00:10:52.327Z,34.50
2019-02-21T00:13:58.224Z,34.30
2019-02-21T00:17:04.039Z,34.40
2019-02-21T00:20:09.999Z,34.40
2019-02-21T00:23:15.898Z,34.40
2019-02-21T00:26:21.615Z,34.40
2019-02-21T00:29:27.267Z,35.00
2019-02-21T00:32:33.123Z,34.30
2019-02-21T00:35:38.868Z,34.40
2019-02-21T00:38:44.659Z,34.40
2019-02-21T00:41:50.384Z,34.40
2019-02-21T00:44:56.139Z,34.30
2019-02-21T00:48:02.002Z,34.40
2019-02-21T00:51:07.868Z,34.40
2019-02-21T00:54:13.544Z,34.40
2019-02-21T00:57:19.369Z,34.30
2019-02-21T01:00:25.271Z,34.30
2019-02-21T01:03:30.975Z,34.30
2019-02-21T01:06:36.842Z,34.30
2019-02-21T01:09:42.633Z,34.20
2019-02-21T01:12:48.450Z,34.20
2019-02-21T01:15:54.211Z,34.20
2019-02-21T01:19:00.308Z,34.20
2019-02-21T01:22:06.123Z,34.20
2019-02-21T01:25:12.035Z,34.30
2019-02-21T01:28:17.728Z,34.20
2019-02-21T01:31:23.487Z,34.20
2019-02-21T01:34:29.281Z,34.20
2019-02-21T01:37:35.003Z,34.20
2019-02-21T01:40:41.112Z,34.20
2019-02-21T01:43:46.999Z,34.20
2019-02-21T01:46:52.679Z,34.30
2019-02-21T01:49:58.675Z,34.20
2019-02-21T01:53:04.501Z,34.20
2019-02-21T01:56:10.396Z,34.30
2019-02-21T01:59:16.247Z,34.20
2019-02-21T02:02:22.072Z,34.10
2019-02-21T02:05:27.963Z,34.20
2019-02-21T02:08:33.871Z,34.20
2019-02-21T02:11:39.643Z,34.20
2019-02-21T02:14:45.595Z,34.10
2019-02-21T02:17:52.486Z,34.20
2019-02-21T02:20:58.275Z,34.20
2019-02-21T02:24:04.195Z,34.20
2019-02-21T02:27:10.051Z,34.20
2019-02-21T02:30:15.952Z,34.20
2019-02-21T02:33:21.872Z,34.20
2019-02-21T02:36:27.785Z,34.20
2019-02-21T02:39:33.698Z,34.10
2019-02-21T02:42:39.588Z,34.20
2019-02-21T02:45:45.381Z,34.20
2019-02-21T02:48:52.403Z,34.20
2019-02-21T02:51:58.288Z,34.20
2019-02-21T02:55:04.252Z,34.20
2019-02-21T02:58:10.068Z,34.20
2019-02-21T03:01:15.928Z,34.10
2019-02-21T03:04:21.821Z,34.10
2019-02-21T03:07:28.661Z,34.10
2019-02-21T03:10:34.516Z,34.20
2019-02-21T03:13:40.395Z,34.20
2019-02-21T03:16:46.242Z,34.20
2019-02-21T03:19:52.098Z,34.10
2019-02-21T03:22:58.054Z,33.50
2019-02-21T03:26:04.021Z,33.70
2019-02-21T03:29:09.880Z,33.90
2019-02-21T03:32:15.945Z,34.00
2019-02-21T03:35:21.930Z,34.20
2019-02-21T03:38:27.761Z,34.40
2019-02-21T03:41:33.613Z,34.40
2019-02-21T03:44:39.577Z,34.60
2019-02-21T03:47:45.541Z,34.70
2019-02-21T03:50:51.526Z,34.60
2019-02-21T03:53:57.352Z,34.70
2019-02-21T03:57:03.147Z,34.80
2019-02-21T04:00:09.368Z,34.90
2019-02-21T04:03:15.231Z,35.00
2019-02-21T04:06:21.087Z,35.00
2019-02-21T04:09:26.981Z,35.00
2019-02-21T04:12:32.688Z,35.00
2019-02-21T04:15:38.552Z,35.00
2019-02-21T04:18:44.404Z,35.00
2019-02-21T04:21:50.377Z,35.00
2019-02-21T04:24:56.120Z,35.10
2019-02-21T04:28:01.980Z,35.10
2019-02-21T04:31:07.771Z,35.20
2019-02-21T04:34:13.599Z,35.30
2019-02-21T04:37:19.459Z,35.20
2019-02-21T04:40:25.207Z,35.30
2019-02-21T04:43:31.065Z,35.30
2019-02-21T04:46:36.956Z,35.30
2019-02-21T04:49:42.676Z,35.30
2019-02-21T04:52:49.623Z,35.40
2019-02-21T04:55:55.520Z,35.40
2019-02-21T04:59:01.169Z,35.30
2019-02-21T05:02:07.185Z,35.30
2019-02-21T05:05:13.093Z,35.40
2019-02-21T05:08:19.161Z,35.40
2019-02-21T05:11:25.153Z,35.50
2019-02-21T05:14:31.179Z,35.40
2019-02-21T05:17:38.105Z,35.40
2019-02-21T05:20:44.024Z,35.50
2019-02-21T05:23:49.983Z,35.60
2019-02-21T05:27:00.747Z,35.70
2019-02-21T05:30:08.280Z,36.40
2019-02-21T05:33:35.824Z,35.80
2019-02-21T05:36:59.849Z,35.80
2019-02-21T05:40:31.490Z,35.90
2019-02-21T05:44:08.271Z,35.90
2019-02-21T05:47:39.044Z,35.90
2019-02-21T05:50:58.305Z,35.90
2019-02-21T05:54:12.853Z,35.90
2019-02-21T05:57:46.524Z,35.90
2019-02-21T06:01:01.922Z,35.90
2019-02-21T06:04:25.208Z,35.90
2019-02-21T06:07:53.014Z,36.00
2019-02-21T06:11:08.037Z,36.00
2019-02-21T06:14:31.749Z,36.30
2019-02-21T06:18:02.388Z,36.00
2019-02-21T06:21:33.175Z,36.00
2019-02-21T06:24:54.044Z,35.90
2019-02-21T06:28:06.960Z,36.00
2019-02-21T06:31:16.164Z,36.10
2019-02-21T06:34:22.005Z,37.50
2019-02-21T06:37:28.003Z,37.00
2019-02-21T06:40:36.436Z,46.90
2019-02-21T06:43:41.572Z,47.80
2019-02-21T06:46:47.492Z,43.00
2019-02-21T06:49:53.453Z,42.60
2019-02-21T06:52:59.552Z,45.90
2019-02-21T06:56:05.472Z,46.10
2019-02-21T06:59:11.701Z,46.50
2019-02-21T07:02:17.807Z,46.70
2019-02-21T07:05:23.755Z,46.60
2019-02-21T07:08:29.785Z,46.40
2019-02-21T07:11:35.776Z,46.20
2019-02-21T07:14:41.793Z,46.30
2019-02-21T07:17:49.606Z,46.40
2019-02-21T07:20:55.199Z,46.20
2019-02-21T07:24:02.118Z,46.30
2019-02-21T07:27:08.239Z,46.40
2019-02-21T07:30:19.697Z,46.20
2019-02-21T07:33:28.525Z,45.90
2019-02-21T07:36:29.300Z,45.50
2019-02-21T07:39:36.426Z,45.40
2019-02-21T07:42:42.439Z,45.20
2019-02-21T07:45:48.313Z,45.00
2019-02-21T07:48:54.210Z,44.60
2019-02-21T07:52:00.021Z,41.30
2019-02-21T07:55:05.912Z,39.70
2019-02-21T07:58:12.136Z,39.80
2019-02-21T08:01:21.009Z,40.00
2019-02-21T08:04:26.900Z,40.10
2019-02-21T08:07:32.885Z,40.10
2019-02-21T08:10:38.792Z,40.30
2019-02-21T08:13:44.649Z,40.20
2019-02-21T08:16:50.462Z,40.20
2019-02-21T08:20:07.473Z,40.10
2019-02-21T08:23:04.140Z,40.10
2019-02-21T08:26:10.238Z,40.00
2019-02-21T08:29:16.180Z,39.80
2019-02-21T08:32:27.015Z,39.90
2019-02-21T08:35:32.820Z,39.80
2019-02-21T08:38:38.735Z,39.80
2019-02-21T08:41:44.699Z,39.60
2019-02-21T08:44:50.547Z,39.50
2019-02-21T08:47:56.507Z,39.50
2019-02-21T08:51:02.471Z,39.50
2019-02-21T08:54:08.329Z,39.50
2019-02-21T08:57:15.315Z,39.50
2019-02-21T09:00:21.063Z,39.50
2019-02-21T09:03:26.921Z,39.40
2019-02-21T09:06:32.689Z,39.40
2019-02-21T09:09:38.656Z,39.40
2019-02-21T09:12:48.180Z,39.30
2019-02-21T09:15:52.097Z,39.40
2019-02-21T09:18:57.960Z,39.50
2019-02-21T09:22:03.907Z,39.40
2019-02-21T09:25:11.621Z,39.40
2019-02-21T09:28:17.465Z,39.40
2019-02-21T09:31:23.444Z,39.20
2019-02-21T09:34:29.341Z,39.20
2019-02-21T09:37:35.254Z,39.20
2019-02-21T09:40:42.720Z,39.20
2019-02-21T09:43:50.981Z,39.10
2019-02-21T09:46:56.422Z,39.10
2019-02-21T09:50:02.328Z,39.00
2019-02-21T09:53:08.336Z,39.00
2019-02-21T09:56:14.292Z,39.00
2019-02-21T09:59:20.252Z,39.00
2019-02-21T10:02:26.108Z,39.10
2019-02-21T10:05:32.320Z,39.20
2019-02-21T10:08:38.337Z,42.90
2019-02-21T10:11:44.366Z,44.70
2019-02-21T10:14:50.352Z,43.30
2019-02-21T10:17:56.852Z,43.00
2019-02-21T10:21:15.030Z,43.00
2019-02-21T10:24:20.821Z,42.90
2019-02-21T10:27:26.679Z,42.60
2019-02-21T10:30:32.792Z,42.40
2019-02-21T10:33:46.568Z,42.20
2019-02-21T10:36:46.456Z,42.20
2019-02-21T10:39:52.337Z,42.20
2019-02-21T10:42:58.337Z,42.00
2019-02-21T10:46:04.332Z,42.00
2019-02-21T10:49:10.244Z,41.90
2019-02-21T10:52:16.270Z,41.90
2019-02-21T10:55:22.163Z,41.90
2019-02-21T10:58:28.092Z,41.80
2019-02-21T11:01:34.137Z,41.80
2019-02-21T11:04:42.148Z,41.70
2019-02-21T11:07:47.640Z,42.30
2019-02-21T11:10:54.160Z,41.60
2019-02-21T11:13:59.970Z,41.70
2019-02-21T11:17:05.872Z,41.50
2019-02-21T11:20:13.745Z,41.40
2019-02-21T11:23:20.930Z,41.40
2019-02-21T11:26:36.313Z,41.50
2019-02-21T11:29:41.958Z,41.30
2019-02-21T11:32:48.159Z,41.40
2019-02-21T11:35:54.190Z,41.30
2019-02-21T11:39:00.921Z,41.10
2019-02-21T11:42:08.306Z,41.10
2019-02-21T11:45:15.545Z,41.10
2019-02-21T11:48:22.572Z,41.00
2019-02-21T11:51:28.648Z,41.00
2019-02-21T11:59:38.074Z,40.80
2019-02-21T12:07:59.393Z,40.80
2019-02-21T12:11:07.328Z,40.70
2019-02-21T12:14:13.292Z,41.40
2019-02-21T12:17:19.253Z,40.60
2019-02-21T12:20:25.109Z,39.60
2019-02-21T12:23:30.872Z,40.60
2019-02-21T12:26:36.826Z,41.20
2019-02-21T12:29:42.676Z,41.30
2019-02-21T12:32:48.647Z,41.30
2019-02-21T12:35:54.627Z,41.10
2019-02-21T12:39:00.578Z,40.90
2019-02-21T12:42:07.892Z,40.80
2019-02-21T12:45:15.957Z,40.60
2019-02-21T12:48:21.820Z,40.50
2019-02-21T12:51:27.572Z,40.40
2019-02-21T12:54:33.544Z,40.30
2019-02-21T12:57:39.544Z,40.20
2019-02-21T13:00:45.583Z,40.10
2019-02-21T13:03:51.540Z,40.10
2019-02-21T13:06:57.384Z,40.10
2019-02-21T13:10:03.241Z,40.00
2019-02-21T13:13:09.145Z,40.00
2019-02-21T13:16:14.959Z,40.00
2019-02-21T13:19:20.811Z,40.00
2019-02-21T13:22:26.634Z,39.90
2019-02-21T13:25:32.634Z,39.90
2019-02-21T13:28:38.488Z,40.40
2019-02-21T13:31:44.488Z,40.10
2019-02-21T13:34:50.410Z,40.10
2019-02-21T13:37:56.219Z,40.10
2019-02-21T13:41:02.121Z,40.20
2019-02-21T13:44:08.172Z,40.10
2019-02-21T13:47:14.093Z,40.00
2019-02-21T13:50:19.892Z,40.00
2019-02-21T14:02:17.624Z,39.60
2019-02-21T14:05:23.625Z,39.50
2019-02-21T14:08:32.620Z,39.50
2019-02-21T14:11:38.468Z,39.50
2019-02-21T14:14:44.337Z,39.50
2019-02-21T14:17:50.088Z,39.50
2019-02-21T14:20:55.932Z,39.50
2019-02-21T14:24:01.807Z,39.50
2019-02-21T14:27:08.885Z,37.20
2019-02-21T14:30:16.719Z,36.80
2019-02-21T14:33:22.556Z,37.10
2019-02-21T14:36:28.396Z,37.50
2019-02-21T14:44:09.341Z,37.80
2019-02-21T14:47:15.280Z,38.20
2019-02-21T14:50:21.128Z,38.40
2019-02-21T14:53:27.034Z,38.30
2019-02-21T14:56:33.214Z,38.40
2019-02-21T14:59:39.134Z,38.50
2019-02-21T15:02:45.064Z,38.60
2019-02-21T15:05:51.062Z,38.70
2019-02-21T15:08:57.191Z,38.60
2019-02-21T15:12:03.200Z,38.60
2019-02-21T15:15:10.040Z,38.60
2019-02-21T15:18:16.145Z,38.80
2019-02-21T15:21:22.070Z,38.70
2019-02-21T15:24:28.055Z,38.70
2019-02-21T15:27:33.981Z,38.70
2019-02-21T15:30:39.950Z,38.70
2019-02-21T15:33:45.867Z,38.80
2019-02-21T15:36:51.760Z,38.80
2019-02-21T15:39:57.763Z,38.80
2019-02-21T15:43:05.355Z,38.80
2019-02-21T15:46:11.382Z,38.80
2019-02-21T15:49:17.422Z,38.80
2019-02-21T15:52:23.402Z,38.80
2019-02-21T15:55:32.084Z,38.80
2019-02-21T15:58:37.060Z,38.60
2019-02-21T16:01:47.618Z,38.50
2019-02-21T16:04:50.464Z,38.50
2019-02-21T16:07:56.333Z,38.40
2019-02-21T16:11:04.140Z,38.40
2019-02-21T16:14:09.937Z,38.40
2019-02-21T16:17:15.931Z,38.30
2019-02-21T16:20:22.119Z,38.30
2019-02-21T16:23:28.221Z,38.30
2019-02-21T16:26:34.141Z,38.30
2019-02-21T16:29:40.288Z,38.30
2019-02-21T16:32:47.357Z,38.30
2019-02-21T16:35:53.384Z,39.10
2019-02-21T16:38:59.180Z,38.30
2019-02-21T16:42:04.904Z,38.30
2019-02-21T16:45:11.929Z,38.30
2019-02-21T16:48:17.855Z,38.50
2019-02-21T16:51:23.696Z,38.30
2019-02-21T16:54:29.664Z,38.20
2019-02-21T16:57:35.860Z,38.30
2019-02-21T17:00:51.394Z,38.20
2019-02-21T17:03:49.188Z,38.80
2019-02-21T17:06:55.045Z,39.30
2019-02-21T17:10:03.893Z,39.30
2019-02-21T17:13:12.100Z,39.10
2019-02-21T17:16:19.440Z,39.10
2019-02-21T17:19:25.471Z,38.60
2019-02-21T17:22:31.721Z,38.40
2019-02-21T17:25:37.960Z,38.10
2019-02-21T17:28:44.175Z,37.90
2019-02-21T17:31:50.086Z,37.80
2019-02-21T17:34:56.272Z,37.70
2019-02-21T17:38:02.817Z,37.70
2019-02-21T17:41:08.930Z,37.60
2019-02-21T17:44:15.135Z,37.60
2019-02-21T17:47:21.076Z,37.50
2019-02-21T17:50:27.081Z,37.50
2019-02-21T17:53:33.280Z,37.50
2019-02-21T17:56:41.437Z,37.50
2019-02-21T17:59:47.408Z,37.60
2019-02-21T18:02:53.227Z,37.50
2019-02-21T18:05:59.088Z,37.60
2019-02-21T18:09:05.600Z,37.60
2019-02-21T18:12:12.945Z,37.40
2019-02-21T18:15:18.939Z,37.40
2019-02-21T18:18:24.786Z,37.40
2019-02-21T18:21:30.732Z,37.40
2019-02-21T18:24:36.692Z,37.40
2019-02-21T18:27:42.649Z,37.40
2019-02-21T18:30:48.651Z,37.30
2019-02-21T18:33:54.351Z,37.30
2019-02-21T18:37:00.220Z,37.30
2019-02-21T18:40:16.987Z,37.20
2019-02-21T18:43:14.910Z,37.20
2019-02-21T18:46:20.819Z,37.20
2019-02-21T18:49:26.607Z,37.20
2019-02-21T18:52:32.580Z,37.20
2019-02-21T18:55:38.476Z,37.20
2019-02-21T18:58:44.401Z,37.30
2019-02-21T19:01:50.355Z,37.50
2019-02-21T19:04:56.108Z,37.50
2019-02-21T19:08:05.315Z,37.50
2019-02-21T19:11:09.708Z,37.60
2019-02-21T19:14:15.736Z,37.60
2019-02-21T19:17:21.483Z,37.60
2019-02-21T19:20:27.594Z,37.60
2019-02-21T19:23:33.516Z,37.60
2019-02-21T19:26:39.412Z,37.60
2019-02-21T19:29:45.321Z,37.60
2019-02-21T19:32:51.284Z,37.60
2019-02-21T19:35:57.491Z,37.60
2019-02-21T19:39:04.926Z,37.60
2019-02-21T19:42:12.488Z,37.70
2019-02-21T19:45:18.810Z,37.60
2019-02-21T19:48:24.796Z,37.60
2019-02-21T19:51:30.671Z,37.60
2019-02-21T19:54:36.587Z,37.60
2019-02-21T19:57:42.476Z,37.70
2019-02-21T20:00:48.459Z,37.70
2019-02-21T20:03:54.364Z,37.70
2019-02-21T20:07:01.496Z,37.80
2019-02-21T20:10:07.946Z,38.60
2019-02-21T20:13:15.272Z,37.70
2019-02-21T20:16:21.384Z,37.70
2019-02-21T20:19:27.343Z,37.70
2019-02-21T20:22:33.336Z,37.70
2019-02-21T20:25:39.515Z,37.70
2019-02-21T20:28:45.632Z,37.70
2019-02-21T20:31:51.736Z,37.70
2019-02-21T20:34:58.375Z,37.80
2019-02-21T20:38:09.148Z,37.20
2019-02-21T20:41:19.923Z,33.90
2019-02-21T20:44:25.893Z,35.70
2019-02-21T20:47:31.863Z,36.50
2019-02-21T20:50:37.927Z,36.80
2019-02-21T20:53:43.860Z,38.30
2019-02-21T20:56:49.720Z,39.00
2019-02-21T20:59:55.684Z,41.20
2019-02-21T21:03:01.555Z,44.30
2019-02-21T21:06:07.435Z,44.60
2019-02-21T21:09:13.353Z,45.50
2019-02-21T21:12:19.216Z,45.90
2019-02-21T21:15:25.167Z,46.40
2019-02-21T21:18:34.156Z,46.60
2019-02-21T21:21:39.887Z,46.80
2019-02-21T21:24:45.815Z,46.90
2019-02-21T21:27:52.076Z,47.20
2019-02-21T21:30:57.940Z,47.20
2019-02-21T21:34:03.836Z,47.20
2019-02-21T21:37:09.796Z,47.30
2019-02-21T21:40:16.151Z,47.50
2019-02-21T21:43:21.876Z,47.30
2019-02-21T21:46:27.636Z,47.00
2019-02-21T21:49:33.504Z,46.80
2019-02-21T21:52:39.459Z,46.50
2019-02-21T21:55:45.316Z,46.30
2019-02-21T21:58:51.065Z,46.10
2019-02-21T22:01:56.999Z,46.00
2019-02-21T22:05:02.886Z,46.10
2019-02-21T22:08:09.981Z,46.30
2019-02-21T22:11:15.968Z,46.40
2019-02-21T22:14:21.892Z,46.30
2019-02-21T22:17:27.855Z,46.30
2019-02-21T22:20:33.747Z,46.30
2019-02-21T22:23:39.668Z,46.10
2019-02-21T22:26:45.597Z,46.60
2019-02-21T22:29:51.590Z,45.90
2019-02-21T22:32:57.555Z,45.80
2019-02-21T22:36:03.549Z,45.50
2019-02-21T22:39:16.398Z,45.40
2019-02-21T22:42:17.484Z,45.40
2019-02-21T22:45:23.436Z,45.30
2019-02-21T22:48:29.611Z,45.00
2019-02-21T22:51:54.549Z,45.10
2019-02-21T22:55:09.895Z,44.60
2019-02-21T22:58:11.808Z,40.40
2019-02-21T23:01:38.519Z,40.10
2019-02-21T23:05:21.264Z,40.70
2019-02-21T23:08:44.289Z,41.20
2019-02-21T23:11:50.239Z,41.00
2019-02-21T23:14:56.299Z,41.60
2019-02-21T23:18:02.259Z,41.80
2019-02-21T23:21:08.323Z,41.90
2019-02-21T23:24:14.187Z,41.90
2019-02-21T23:27:20.147Z,42.10
2019-02-21T23:30:26.920Z,42.00
2019-02-21T23:33:34.489Z,42.10
2019-02-21T23:36:40.520Z,42.20
2019-02-21T23:39:46.536Z,42.30
2019-02-21T23:42:52.496Z,42.20
2019-02-21T23:45:58.411Z,42.20
2019-02-21T23:49:04.379Z,42.20
2019-02-21T23:52:10.159Z,42.30
2019-02-21T23:55:15.880Z,42.30
